sensor_id;sensor_type;location;lat;lon;timestamp;pressure;altitude;pressure_sealevel;temperature;humidity
10732;BME280;5417;42.686;23.244;2023-03-15T00:01:34;93308.03;;;8.93;44.76
10732;BME280;5417;42.686;23.244;2023-03-15T00:04:01;93309.41;;;8.88;45.04
10732;BME280;5417;42.686;23.244;2023-03-15T00:06:30;93309.22;;;8.99;44.87
10732;BME280;5417;42.686;23.244;2023-03-15T00:08:58;93312.63;;;8.99;44.52
10732;BME280;5417;42.686;23.244;2023-03-15T00:11:28;93307.34;;;8.91;45.08
10732;BME280;5417;42.686;23.244;2023-03-15T00:13:56;93314.47;;;8.89;44.60
10732;BME280;5417;42.686;23.244;2023-03-15T00:16:24;93314.31;;;8.91;44.84
10732;BME280;5417;42.686;23.244;2023-03-15T00:18:52;93307.41;;;9.09;43.84
10732;BME280;5417;42.686;23.244;2023-03-15T00:21:19;93305.69;;;9.00;44.70
10732;BME280;5417;42.686;23.244;2023-03-15T00:23:46;93296.44;;;8.88;45.05
10732;BME280;5417;42.686;23.244;2023-03-15T00:26:14;93298.47;;;8.84;45.02
10732;BME280;5417;42.686;23.244;2023-03-15T00:28:42;93296.44;;;8.88;45.37
10732;BME280;5417;42.686;23.244;2023-03-15T00:31:13;93299.56;;;8.91;45.16
10732;BME280;5417;42.686;23.244;2023-03-15T00:33:40;93297.47;;;9.04;44.55
10732;BME280;5417;42.686;23.244;2023-03-15T00:36:09;93292.84;;;8.98;45.12
10732;BME280;5417;42.686;23.244;2023-03-15T00:38:37;93291.53;;;8.84;44.97
10732;BME280;5417;42.686;23.244;2023-03-15T00:41:05;93287.97;;;8.76;45.55
10732;BME280;5417;42.686;23.244;2023-03-15T00:43:33;93287.44;;;8.72;45.99
10732;BME280;5417;42.686;23.244;2023-03-15T00:46:02;93289.31;;;8.80;45.09
10732;BME280;5417;42.686;23.244;2023-03-15T00:48:29;93284.41;;;8.87;45.29
10732;BME280;5417;42.686;23.244;2023-03-15T00:51:07;93271.59;;;8.85;46.72
10732;BME280;5417;42.686;23.244;2023-03-15T00:53:36;93268.19;;;8.84;45.80
10732;BME280;5417;42.686;23.244;2023-03-15T00:56:04;93273.63;;;8.81;45.23
10732;BME280;5417;42.686;23.244;2023-03-15T00:58:31;93263.75;;;8.95;45.40
10732;BME280;5417;42.686;23.244;2023-03-15T01:00:58;93260.75;;;8.99;45.83
10732;BME280;5417;42.686;23.244;2023-03-15T01:03:28;93260.44;;;9.02;45.33
10732;BME280;5417;42.686;23.244;2023-03-15T01:05:54;93259.50;;;9.03;45.84
10732;BME280;5417;42.686;23.244;2023-03-15T01:08:21;93258.53;;;9.04;45.38
10732;BME280;5417;42.686;23.244;2023-03-15T01:10:49;93258.53;;;9.04;45.91
10732;BME280;5417;42.686;23.244;2023-03-15T01:13:16;93252.31;;;9.15;45.55
10732;BME280;5417;42.686;23.244;2023-03-15T01:15:45;93257.59;;;9.23;45.50
10732;BME280;5417;42.686;23.244;2023-03-15T01:18:12;93264.78;;;9.11;46.07
10732;BME280;5417;42.686;23.244;2023-03-15T01:20:43;93245.06;;;9.18;45.76
10732;BME280;5417;42.686;23.244;2023-03-15T01:23:10;93239.34;;;9.15;45.53
10732;BME280;5417;42.686;23.244;2023-03-15T01:25:37;93231.41;;;9.16;45.60
10732;BME280;5417;42.686;23.244;2023-03-15T01:28:04;93227.25;;;9.06;46.70
10732;BME280;5417;42.686;23.244;2023-03-15T01:30:31;93230.69;;;8.97;46.96
10732;BME280;5417;42.686;23.244;2023-03-15T01:32:58;93235.88;;;8.97;47.25
10732;BME280;5417;42.686;23.244;2023-03-15T01:35:25;93228.59;;;9.10;47.38
10732;BME280;5417;42.686;23.244;2023-03-15T01:37:53;93224.78;;;9.04;47.43
10732;BME280;5417;42.686;23.244;2023-03-15T01:40:20;93222.56;;;9.09;47.28
10732;BME280;5417;42.686;23.244;2023-03-15T01:42:51;93227.03;;;9.17;45.96
10732;BME280;5417;42.686;23.244;2023-03-15T01:48:36;93228.69;;;8.91;47.82
10732;BME280;5417;42.686;23.244;2023-03-15T01:51:08;93221.34;;;8.86;47.44
10732;BME280;5417;42.686;23.244;2023-03-15T01:53:40;93212.03;;;8.83;47.35
10732;BME280;5417;42.686;23.244;2023-03-15T01:56:08;93211.22;;;8.83;47.28
10732;BME280;5417;42.686;23.244;2023-03-15T01:58:37;93214.63;;;8.83;47.81
10732;BME280;5417;42.686;23.244;2023-03-15T02:01:07;93199.19;;;8.82;47.91
10732;BME280;5417;42.686;23.244;2023-03-15T02:03:37;93183.00;;;8.70;47.82
10732;BME280;5417;42.686;23.244;2023-03-15T02:06:13;93193.63;;;8.77;48.53
10732;BME280;5417;42.686;23.244;2023-03-15T02:08:47;93185.16;;;8.75;48.77
10732;BME280;5417;42.686;23.244;2023-03-15T02:11:18;93189.69;;;8.73;48.80
10732;BME280;5417;42.686;23.244;2023-03-15T02:13:47;93184.50;;;8.73;48.80
10732;BME280;5417;42.686;23.244;2023-03-15T02:16:15;93179.75;;;8.68;48.38
10732;BME280;5417;42.686;23.244;2023-03-15T02:18:42;93182.47;;;8.67;48.57
10732;BME280;5417;42.686;23.244;2023-03-15T02:21:16;93184.25;;;8.66;48.45
10732;BME280;5417;42.686;23.244;2023-03-15T02:23:55;93173.22;;;8.64;48.66
10732;BME280;5417;42.686;23.244;2023-03-15T02:26:30;93174.66;;;8.76;49.06
10732;BME280;5417;42.686;23.244;2023-03-15T02:29:01;93182.13;;;8.89;47.55
10732;BME280;5417;42.686;23.244;2023-03-15T02:31:28;93178.63;;;8.71;48.93
10732;BME280;5417;42.686;23.244;2023-03-15T02:34:02;93174.47;;;8.60;49.57
10732;BME280;5417;42.686;23.244;2023-03-15T02:36:30;93164.50;;;8.56;49.78
10732;BME280;5417;42.686;23.244;2023-03-15T02:38:56;93168.50;;;8.50;48.76
10732;BME280;5417;42.686;23.244;2023-03-15T02:41:28;93175.31;;;8.51;50.46
10732;BME280;5417;42.686;23.244;2023-03-15T02:44:04;93166.38;;;8.63;49.34
10732;BME280;5417;42.686;23.244;2023-03-15T02:46:32;93159.03;;;8.59;48.45
10732;BME280;5417;42.686;23.244;2023-03-15T02:49:00;93163.59;;;8.47;49.31
10732;BME280;5417;42.686;23.244;2023-03-15T02:51:28;93156.94;;;8.25;50.02
10732;BME280;5417;42.686;23.244;2023-03-15T02:53:55;93171.56;;;8.16;50.80
10732;BME280;5417;42.686;23.244;2023-03-15T02:56:22;93161.72;;;8.20;49.51
10732;BME280;5417;42.686;23.244;2023-03-15T02:58:49;93164.88;;;8.14;49.17
10732;BME280;5417;42.686;23.244;2023-03-15T03:01:18;93159.56;;;8.15;49.96
10732;BME280;5417;42.686;23.244;2023-03-15T03:03:45;93150.84;;;8.07;50.88
10732;BME280;5417;42.686;23.244;2023-03-15T03:06:14;93145.13;;;8.03;50.10
10732;BME280;5417;42.686;23.244;2023-03-15T03:08:41;93137.25;;;7.95;50.02
10732;BME280;5417;42.686;23.244;2023-03-15T03:11:12;93141.09;;;7.91;50.78
10732;BME280;5417;42.686;23.244;2023-03-15T03:13:39;93145.44;;;7.90;49.76
10732;BME280;5417;42.686;23.244;2023-03-15T03:16:06;93136.72;;;7.91;49.35
10732;BME280;5417;42.686;23.244;2023-03-15T03:18:36;93140.94;;;7.93;49.84
10732;BME280;5417;42.686;23.244;2023-03-15T03:21:04;93142.44;;;7.95;50.07
10732;BME280;5417;42.686;23.244;2023-03-15T03:23:32;93138.88;;;7.96;50.56
10732;BME280;5417;42.686;23.244;2023-03-15T03:26:00;93123.06;;;7.99;50.54
10732;BME280;5417;42.686;23.244;2023-03-15T03:28:29;93131.22;;;8.04;50.43
10732;BME280;5417;42.686;23.244;2023-03-15T03:30:56;93122.50;;;8.05;49.93
10732;BME280;5417;42.686;23.244;2023-03-15T03:33:24;93131.75;;;8.08;51.11
10732;BME280;5417;42.686;23.244;2023-03-15T03:35:52;93134.50;;;8.06;52.20
10732;BME280;5417;42.686;23.244;2023-03-15T03:38:19;93124.53;;;8.11;51.69
10732;BME280;5417;42.686;23.244;2023-03-15T03:40:46;93126.03;;;8.04;52.06
10732;BME280;5417;42.686;23.244;2023-03-15T03:43:13;93127.78;;;8.13;51.17
10732;BME280;5417;42.686;23.244;2023-03-15T03:45:40;93124.91;;;8.16;51.51
10732;BME280;5417;42.686;23.244;2023-03-15T03:48:07;93120.78;;;8.23;51.30
10732;BME280;5417;42.686;23.244;2023-03-15T03:50:34;93121.06;;;8.40;51.20
10732;BME280;5417;42.686;23.244;2023-03-15T03:53:02;93109.66;;;8.13;51.20
10732;BME280;5417;42.686;23.244;2023-03-15T03:55:29;93113.88;;;8.14;51.14
10732;BME280;5417;42.686;23.244;2023-03-15T03:57:58;93103.81;;;8.02;52.04
10732;BME280;5417;42.686;23.244;2023-03-15T04:00:25;93103.81;;;8.02;52.87
10732;BME280;5417;42.686;23.244;2023-03-15T04:02:52;93097.25;;;8.07;53.36
10732;BME280;5417;42.686;23.244;2023-03-15T04:05:19;93089.63;;;8.06;53.11
10732;BME280;5417;42.686;23.244;2023-03-15T04:07:46;93097.13;;;8.09;52.07
10732;BME280;5417;42.686;23.244;2023-03-15T04:10:15;93100.25;;;8.12;53.53
10732;BME280;5417;42.686;23.244;2023-03-15T04:12:42;93101.88;;;8.13;53.32
10732;BME280;5417;42.686;23.244;2023-03-15T04:15:09;93097.38;;;8.15;52.92
10732;BME280;5417;42.686;23.244;2023-03-15T04:17:38;93097.94;;;8.09;51.77
10732;BME280;5417;42.686;23.244;2023-03-15T04:20:06;93102.84;;;8.12;53.05
10732;BME280;5417;42.686;23.244;2023-03-15T04:22:36;93096.53;;;8.15;52.65
10732;BME280;5417;42.686;23.244;2023-03-15T04:25:03;93100.06;;;8.33;52.32
10732;BME280;5417;42.686;23.244;2023-03-15T04:27:33;93085.72;;;8.29;50.69
10732;BME280;5417;42.686;23.244;2023-03-15T04:30:00;93101.13;;;8.31;51.62
10732;BME280;5417;42.686;23.244;2023-03-15T04:32:29;93093.25;;;8.22;53.14
10732;BME280;5417;42.686;23.244;2023-03-15T04:34:56;93091.75;;;8.20;52.54
10732;BME280;5417;42.686;23.244;2023-03-15T04:37:23;93095.00;;;8.22;54.00
10732;BME280;5417;42.686;23.244;2023-03-15T04:39:50;93084.66;;;8.22;51.94
10732;BME280;5417;42.686;23.244;2023-03-15T04:42:17;93077.50;;;8.43;49.02
10732;BME280;5417;42.686;23.244;2023-03-15T04:44:46;93072.22;;;8.26;49.51
10732;BME280;5417;42.686;23.244;2023-03-15T04:47:13;93081.53;;;8.18;50.93
10732;BME280;5417;42.686;23.244;2023-03-15T04:52:25;93077.59;;;8.14;52.22
10732;BME280;5417;42.686;23.244;2023-03-15T04:54:52;93080.03;;;8.16;51.11
10732;BME280;5417;42.686;23.244;2023-03-15T04:57:19;93075.53;;;8.18;51.33
10732;BME280;5417;42.686;23.244;2023-03-15T04:59:47;93069.38;;;8.19;51.76
10732;BME280;5417;42.686;23.244;2023-03-15T05:02:14;93075.91;;;8.23;51.07
10732;BME280;5417;42.686;23.244;2023-03-15T05:04:41;93070.72;;;8.23;51.45
10732;BME280;5417;42.686;23.244;2023-03-15T05:07:08;93078.50;;;8.33;50.74
10732;BME280;5417;42.686;23.244;2023-03-15T05:09:35;93070.50;;;8.53;51.03
10732;BME280;5417;42.686;23.244;2023-03-15T05:12:04;93079.00;;;8.91;49.57
10732;BME280;5417;42.686;23.244;2023-03-15T05:14:31;93074.31;;;9.30;48.64
10732;BME280;5417;42.686;23.244;2023-03-15T05:16:59;93073.78;;;9.88;46.66
10732;BME280;5417;42.686;23.244;2023-03-15T05:19:26;93073.88;;;10.30;45.52
10732;BME280;5417;42.686;23.244;2023-03-15T05:21:54;93083.47;;;10.30;44.86
10732;BME280;5417;42.686;23.244;2023-03-15T05:24:21;93085.81;;;10.15;45.39
10732;BME280;5417;42.686;23.244;2023-03-15T05:26:48;93080.53;;;9.99;44.78
10732;BME280;5417;42.686;23.244;2023-03-15T05:29:18;93064.75;;;9.74;44.36
10732;BME280;5417;42.686;23.244;2023-03-15T05:31:45;93056.50;;;9.53;45.54
10732;BME280;5417;42.686;23.244;2023-03-15T05:34:14;93069.63;;;9.52;45.12
10732;BME280;5417;42.686;23.244;2023-03-15T05:36:44;93072.19;;;9.43;45.72
10732;BME280;5417;42.686;23.244;2023-03-15T05:39:11;93067.19;;;9.32;45.48
10732;BME280;5417;42.686;23.244;2023-03-15T05:41:41;93061.28;;;9.22;45.91
10732;BME280;5417;42.686;23.244;2023-03-15T05:44:08;93064.84;;;9.21;46.45
10732;BME280;5417;42.686;23.244;2023-03-15T05:46:35;93067.72;;;9.18;46.48
10732;BME280;5417;42.686;23.244;2023-03-15T05:49:02;93062.53;;;9.18;45.88
10732;BME280;5417;42.686;23.244;2023-03-15T05:51:31;93066.91;;;9.17;46.22
10732;BME280;5417;42.686;23.244;2023-03-15T05:53:58;93060.25;;;9.15;45.32
10732;BME280;5417;42.686;23.244;2023-03-15T05:56:25;93060.38;;;9.13;45.55
10732;BME280;5417;42.686;23.244;2023-03-15T05:58:52;93053.56;;;9.12;46.25
10732;BME280;5417;42.686;23.244;2023-03-15T06:01:19;93050.53;;;9.17;46.45
10732;BME280;5417;42.686;23.244;2023-03-15T06:03:46;93064.53;;;9.24;46.23
10732;BME280;5417;42.686;23.244;2023-03-15T06:06:13;93064.44;;;9.52;46.66
10732;BME280;5417;42.686;23.244;2023-03-15T06:08:41;93059.59;;;10.34;45.06
10732;BME280;5417;42.686;23.244;2023-03-15T06:11:08;93061.41;;;10.92;43.34
10732;BME280;5417;42.686;23.244;2023-03-15T06:13:35;93051.22;;;11.15;42.42
10732;BME280;5417;42.686;23.244;2023-03-15T06:16:02;93052.69;;;11.83;41.63
10732;BME280;5417;42.686;23.244;2023-03-15T06:18:48;93066.38;;;12.56;39.29
10732;BME280;5417;42.686;23.244;2023-03-15T06:21:15;93068.41;;;12.77;37.29
10732;BME280;5417;42.686;23.244;2023-03-15T06:23:43;93061.72;;;12.75;36.68
10732;BME280;5417;42.686;23.244;2023-03-15T06:26:10;93062.97;;;12.56;37.52
10732;BME280;5417;42.686;23.244;2023-03-15T06:28:38;93067.59;;;12.29;37.22
10732;BME280;5417;42.686;23.244;2023-03-15T06:31:06;93047.44;;;12.15;37.43
10732;BME280;5417;42.686;23.244;2023-03-15T06:33:33;93047.97;;;11.78;37.84
10732;BME280;5417;42.686;23.244;2023-03-15T06:36:00;93043.25;;;11.65;38.22
10732;BME280;5417;42.686;23.244;2023-03-15T06:38:27;93055.47;;;11.57;38.75
10732;BME280;5417;42.686;23.244;2023-03-15T06:40:57;93050.41;;;12.04;39.01
10732;BME280;5417;42.686;23.244;2023-03-15T06:43:24;93047.91;;;12.66;38.24
10732;BME280;5417;42.686;23.244;2023-03-15T06:45:51;93041.56;;;12.91;36.73
10732;BME280;5417;42.686;23.244;2023-03-15T06:48:20;93038.06;;;13.07;36.23
10732;BME280;5417;42.686;23.244;2023-03-15T06:50:47;93042.16;;;13.33;35.71
10732;BME280;5417;42.686;23.244;2023-03-15T06:53:14;93047.38;;;13.93;35.56
10732;BME280;5417;42.686;23.244;2023-03-15T06:55:42;93054.50;;;14.51;34.05
10732;BME280;5417;42.686;23.244;2023-03-15T06:58:11;93048.66;;;15.00;33.48
10732;BME280;5417;42.686;23.244;2023-03-15T07:00:38;93043.47;;;15.43;33.30
10732;BME280;5417;42.686;23.244;2023-03-15T07:03:05;93036.84;;;15.90;31.94
10732;BME280;5417;42.686;23.244;2023-03-15T07:05:32;93027.47;;;16.30;31.74
10732;BME280;5417;42.686;23.244;2023-03-15T07:07:59;93019.19;;;16.33;30.91
10732;BME280;5417;42.686;23.244;2023-03-15T07:10:26;93022.25;;;15.59;31.72
10732;BME280;5417;42.686;23.244;2023-03-15T07:12:53;93031.59;;;15.26;31.79
10732;BME280;5417;42.686;23.244;2023-03-15T07:15:21;93043.53;;;14.33;33.47
10732;BME280;5417;42.686;23.244;2023-03-15T07:17:48;93038.09;;;13.90;34.49
10732;BME280;5417;42.686;23.244;2023-03-15T07:20:15;93041.91;;;13.65;34.22
10732;BME280;5417;42.686;23.244;2023-03-15T07:22:42;93037.25;;;13.52;35.24
10732;BME280;5417;42.686;23.244;2023-03-15T07:25:10;93045.19;;;13.21;36.14
10732;BME280;5417;42.686;23.244;2023-03-15T07:27:37;93052.47;;;12.95;35.60
10732;BME280;5417;42.686;23.244;2023-03-15T07:30:05;93048.13;;;12.87;36.37
10732;BME280;5417;42.686;23.244;2023-03-15T07:32:35;93031.34;;;12.43;36.02
10732;BME280;5417;42.686;23.244;2023-03-15T07:35:06;93039.63;;;12.07;36.87
10732;BME280;5417;42.686;23.244;2023-03-15T07:37:34;93023.69;;;11.86;38.50
10732;BME280;5417;42.686;23.244;2023-03-15T07:40:00;93031.81;;;11.91;38.12
10732;BME280;5417;42.686;23.244;2023-03-15T07:42:34;93041.88;;;12.18;39.09
10732;BME280;5417;42.686;23.244;2023-03-15T07:45:01;93036.34;;;12.13;38.32
10732;BME280;5417;42.686;23.244;2023-03-15T07:47:28;93032.50;;;12.40;38.96
10732;BME280;5417;42.686;23.244;2023-03-15T07:49:56;93036.00;;;12.63;38.70
10732;BME280;5417;42.686;23.244;2023-03-15T07:52:24;93028.34;;;12.93;37.43
10732;BME280;5417;42.686;23.244;2023-03-15T07:54:51;93019.81;;;12.99;39.11
10732;BME280;5417;42.686;23.244;2023-03-15T07:57:18;93021.03;;;12.88;37.31
10732;BME280;5417;42.686;23.244;2023-03-15T07:59:45;93022.88;;;12.49;38.12
10732;BME280;5417;42.686;23.244;2023-03-15T08:02:13;93025.63;;;12.08;38.27
10732;BME280;5417;42.686;23.244;2023-03-15T08:04:40;93021.75;;;11.80;38.18
10732;BME280;5417;42.686;23.244;2023-03-15T08:07:08;93030.88;;;11.84;39.24
10732;BME280;5417;42.686;23.244;2023-03-15T08:09:35;93033.13;;;11.95;38.60
10732;BME280;5417;42.686;23.244;2023-03-15T08:12:04;93032.13;;;11.96;38.12
10732;BME280;5417;42.686;23.244;2023-03-15T08:14:31;93027.44;;;11.91;38.02
10732;BME280;5417;42.686;23.244;2023-03-15T08:16:58;93008.22;;;11.84;38.59
10732;BME280;5417;42.686;23.244;2023-03-15T08:23:14;93007.91;;;12.35;38.36
10732;BME280;5417;42.686;23.244;2023-03-15T08:25:41;93020.47;;;12.70;37.46
10732;BME280;5417;42.686;23.244;2023-03-15T08:28:08;93014.44;;;13.01;36.65
10732;BME280;5417;42.686;23.244;2023-03-15T08:30:36;93008.88;;;13.26;36.11
10732;BME280;5417;42.686;23.244;2023-03-15T08:33:03;92998.22;;;13.51;34.88
10732;BME280;5417;42.686;23.244;2023-03-15T08:35:30;92995.78;;;13.72;36.23
10732;BME280;5417;42.686;23.244;2023-03-15T08:38:06;93002.47;;;14.04;35.22
10732;BME280;5417;42.686;23.244;2023-03-15T08:40:35;92994.06;;;13.94;37.55
10732;BME280;5417;42.686;23.244;2023-03-15T08:43:03;92991.28;;;13.96;36.36
10732;BME280;5417;42.686;23.244;2023-03-15T08:45:47;92980.13;;;14.16;36.02
10732;BME280;5417;42.686;23.244;2023-03-15T08:48:15;92978.03;;;14.12;34.97
10732;BME280;5417;42.686;23.244;2023-03-15T08:50:42;92975.06;;;14.30;36.08
10732;BME280;5417;42.686;23.244;2023-03-15T08:53:09;92986.97;;;14.47;35.10
10732;BME280;5417;42.686;23.244;2023-03-15T08:55:38;92973.34;;;14.07;34.86
10732;BME280;5417;42.686;23.244;2023-03-15T08:58:04;92987.13;;;14.01;34.88
10732;BME280;5417;42.686;23.244;2023-03-15T09:00:31;92989.84;;;13.93;36.62
10732;BME280;5417;42.686;23.244;2023-03-15T09:02:58;92977.91;;;13.76;36.34
10732;BME280;5417;42.686;23.244;2023-03-15T09:05:25;92979.94;;;13.51;36.30
10732;BME280;5417;42.686;23.244;2023-03-15T09:07:53;92977.03;;;13.46;37.23
10732;BME280;5417;42.686;23.244;2023-03-15T09:10:20;92975.50;;;13.51;38.20
10732;BME280;5417;42.686;23.244;2023-03-15T09:12:50;92983.06;;;13.69;37.58
10732;BME280;5417;42.686;23.244;2023-03-15T09:15:18;92979.25;;;13.57;36.61
10732;BME280;5417;42.686;23.244;2023-03-15T09:17:47;92982.00;;;13.41;36.30
10732;BME280;5417;42.686;23.244;2023-03-15T09:20:15;92987.91;;;13.12;36.60
10732;BME280;5417;42.686;23.244;2023-03-15T09:22:49;92987.44;;;13.08;37.12
10732;BME280;5417;42.686;23.244;2023-03-15T09:25:16;92992.41;;;12.95;36.89
10732;BME280;5417;42.686;23.244;2023-03-15T09:27:43;92993.38;;;13.02;37.17
10732;BME280;5417;42.686;23.244;2023-03-15T09:30:13;92990.06;;;13.08;36.92
10732;BME280;5417;42.686;23.244;2023-03-15T09:32:40;92988.78;;;13.04;36.75
10732;BME280;5417;42.686;23.244;2023-03-15T09:35:12;92991.59;;;12.94;37.18
10732;BME280;5417;42.686;23.244;2023-03-15T09:37:39;92992.75;;;12.92;37.62
10732;BME280;5417;42.686;23.244;2023-03-15T09:40:14;92974.66;;;12.90;37.29
10732;BME280;5417;42.686;23.244;2023-03-15T09:45:56;92967.53;;;13.30;37.42
10732;BME280;5417;42.686;23.244;2023-03-15T09:48:29;92964.47;;;13.26;37.06
10732;BME280;5417;42.686;23.244;2023-03-15T09:51:01;92968.72;;;13.27;37.02
10732;BME280;5417;42.686;23.244;2023-03-15T09:53:36;92962.78;;;13.11;37.18
10732;BME280;5417;42.686;23.244;2023-03-15T09:56:18;92954.19;;;13.02;37.19
10732;BME280;5417;42.686;23.244;2023-03-15T09:58:48;92958.91;;;13.07;37.13
10732;BME280;5417;42.686;23.244;2023-03-15T10:01:21;92969.59;;;13.20;37.79
10732;BME280;5417;42.686;23.244;2023-03-15T10:03:52;92974.69;;;13.13;37.55
10732;BME280;5417;42.686;23.244;2023-03-15T10:06:25;92963.59;;;13.11;37.48
10732;BME280;5417;42.686;23.244;2023-03-15T10:08:56;92979.66;;;13.00;37.71
10732;BME280;5417;42.686;23.244;2023-03-15T10:11:30;92979.78;;;13.07;37.68
10732;BME280;5417;42.686;23.244;2023-03-15T10:14:13;92972.34;;;12.95;37.82
10732;BME280;5417;42.686;23.244;2023-03-15T10:16:47;92974.00;;;12.88;38.57
10732;BME280;5417;42.686;23.244;2023-03-15T10:19:25;92970.03;;;13.01;38.27
10732;BME280;5417;42.686;23.244;2023-03-15T10:21:59;92976.38;;;13.06;37.68
10732;BME280;5417;42.686;23.244;2023-03-15T10:24:33;92956.22;;;13.15;37.53
10732;BME280;5417;42.686;23.244;2023-03-15T10:27:13;92963.75;;;13.33;38.17
10732;BME280;5417;42.686;23.244;2023-03-15T10:29:42;92972.69;;;13.38;37.41
10732;BME280;5417;42.686;23.244;2023-03-15T10:32:16;92963.13;;;13.31;37.44
10732;BME280;5417;42.686;23.244;2023-03-15T10:34:47;92961.56;;;13.21;36.79
10732;BME280;5417;42.686;23.244;2023-03-15T10:37:15;92958.59;;;13.24;37.52
10732;BME280;5417;42.686;23.244;2023-03-15T10:39:43;92955.81;;;13.26;36.85
10732;BME280;5417;42.686;23.244;2023-03-15T10:42:24;92962.56;;;13.20;37.30
10732;BME280;5417;42.686;23.244;2023-03-15T10:44:51;92967.53;;;13.07;37.95
10732;BME280;5417;42.686;23.244;2023-03-15T10:47:20;92961.97;;;13.10;38.03
10732;BME280;5417;42.686;23.244;2023-03-15T10:49:47;92954.50;;;12.99;37.64
10732;BME280;5417;42.686;23.244;2023-03-15T10:52:31;92958.44;;;13.03;37.90
10732;BME280;5417;42.686;23.244;2023-03-15T10:55:03;92960.72;;;12.98;38.17
10732;BME280;5417;42.686;23.244;2023-03-15T10:57:34;92969.06;;;13.02;37.77
10732;BME280;5417;42.686;23.244;2023-03-15T11:00:18;92966.94;;;12.97;38.22
10732;BME280;5417;42.686;23.244;2023-03-15T11:03:01;92963.69;;;12.95;38.40
10732;BME280;5417;42.686;23.244;2023-03-15T11:05:30;92957.13;;;12.99;37.89
10732;BME280;5417;42.686;23.244;2023-03-15T11:08:03;92959.72;;;12.99;37.71
10732;BME280;5417;42.686;23.244;2023-03-15T11:10:36;92963.81;;;13.02;38.13
10732;BME280;5417;42.686;23.244;2023-03-15T11:13:17;92961.84;;;13.04;38.19
10732;BME280;5417;42.686;23.244;2023-03-15T11:15:59;92955.00;;;13.03;38.13
10732;BME280;5417;42.686;23.244;2023-03-15T11:18:34;92944.03;;;13.07;38.90
10732;BME280;5417;42.686;23.244;2023-03-15T11:21:07;92940.31;;;13.02;40.08
10732;BME280;5417;42.686;23.244;2023-03-15T11:23:37;92964.03;;;12.92;42.65
10732;BME280;5417;42.686;23.244;2023-03-15T11:26:07;92966.25;;;12.80;44.99
10732;BME280;5417;42.686;23.244;2023-03-15T11:28:35;92968.91;;;12.72;45.70
10732;BME280;5417;42.686;23.244;2023-03-15T11:31:04;92972.91;;;12.60;44.73
10732;BME280;5417;42.686;23.244;2023-03-15T11:33:38;92972.44;;;12.56;45.42
10732;BME280;5417;42.686;23.244;2023-03-15T11:36:12;92971.97;;;12.45;45.57
10732;BME280;5417;42.686;23.244;2023-03-15T11:38:43;92960.72;;;12.44;45.63
10732;BME280;5417;42.686;23.244;2023-03-15T11:41:17;92945.28;;;12.35;46.29
10732;BME280;5417;42.686;23.244;2023-03-15T11:43:50;92949.19;;;12.39;46.59
10732;BME280;5417;42.686;23.244;2023-03-15T11:46:24;92948.03;;;12.41;46.37
10732;BME280;5417;42.686;23.244;2023-03-15T11:49:00;92933.66;;;12.45;48.99
10732;BME280;5417;42.686;23.244;2023-03-15T11:51:32;92935.53;;;12.59;47.68
10732;BME280;5417;42.686;23.244;2023-03-15T11:54:07;92942.34;;;12.69;47.98
10732;BME280;5417;42.686;23.244;2023-03-15T11:56:54;92938.44;;;12.64;47.79
10732;BME280;5417;42.686;23.244;2023-03-15T11:59:27;92939.78;;;12.60;47.33
10732;BME280;5417;42.686;23.244;2023-03-15T12:01:58;92946.44;;;12.63;47.29
10732;BME280;5417;42.686;23.244;2023-03-15T12:04:42;92940.53;;;12.69;46.73
10732;BME280;5417;42.686;23.244;2023-03-15T12:07:34;92938.44;;;12.64;47.24
10732;BME280;5417;42.686;23.244;2023-03-15T12:10:32;92944.00;;;12.61;47.63
10732;BME280;5417;42.686;23.244;2023-03-15T12:13:06;92926.91;;;12.59;47.23
10732;BME280;5417;42.686;23.244;2023-03-15T12:15:51;92927.06;;;12.57;47.77
10732;BME280;5417;42.686;23.244;2023-03-15T12:18:27;92931.47;;;12.57;48.43
10732;BME280;5417;42.686;23.244;2023-03-15T12:21:15;92924.16;;;12.52;46.54
10732;BME280;5417;42.686;23.244;2023-03-15T12:23:45;92925.63;;;12.55;46.55
10732;BME280;5417;42.686;23.244;2023-03-15T12:26:39;92921.03;;;12.57;48.46
10732;BME280;5417;42.686;23.244;2023-03-15T12:29:13;92925.09;;;12.59;47.45
10732;BME280;5417;42.686;23.244;2023-03-15T12:31:57;92925.50;;;12.71;46.95
10732;BME280;5417;42.686;23.244;2023-03-15T12:34:29;92919.06;;;12.82;46.50
10732;BME280;5417;42.686;23.244;2023-03-15T12:37:02;92913.38;;;12.78;45.48
10732;BME280;5417;42.686;23.244;2023-03-15T12:39:43;92900.91;;;12.88;45.40
10732;BME280;5417;42.686;23.244;2023-03-15T12:45:55;92911.34;;;12.88;45.04
10732;BME280;5417;42.686;23.244;2023-03-15T12:48:24;92909.38;;;12.90;44.71
10732;BME280;5417;42.686;23.244;2023-03-15T12:53:51;92905.03;;;12.83;44.29
10732;BME280;5417;42.686;23.244;2023-03-15T12:56:40;92908.44;;;12.83;44.46
10732;BME280;5417;42.686;23.244;2023-03-15T12:59:34;92908.09;;;12.86;44.89
10732;BME280;5417;42.686;23.244;2023-03-15T13:02:17;92897.13;;;12.91;43.85
10732;BME280;5417;42.686;23.244;2023-03-15T13:04:48;92895.69;;;12.88;44.74
10732;BME280;5417;42.686;23.244;2023-03-15T13:07:24;92894.69;;;12.89;43.42
10732;BME280;5417;42.686;23.244;2023-03-15T13:10:18;92883.78;;;12.86;43.76
10732;BME280;5417;42.686;23.244;2023-03-15T13:12:52;92889.19;;;12.84;43.40
10732;BME280;5417;42.686;23.244;2023-03-15T13:15:24;92889.34;;;12.83;43.55
10732;BME280;5417;42.686;23.244;2023-03-15T13:17:56;92899.09;;;12.89;43.75
10732;BME280;5417;42.686;23.244;2023-03-15T13:20:41;92893.53;;;12.92;43.43
10732;BME280;5417;42.686;23.244;2023-03-15T13:23:15;92894.28;;;12.78;43.42
10732;BME280;5417;42.686;23.244;2023-03-15T13:25:51;92898.00;;;12.60;43.23
10732;BME280;5417;42.686;23.244;2023-03-15T13:28:22;92893.09;;;12.35;44.35
10732;BME280;5417;42.686;23.244;2023-03-15T13:30:50;92901.78;;;12.27;45.19
10732;BME280;5417;42.686;23.244;2023-03-15T13:33:20;92901.25;;;12.09;45.13
10732;BME280;5417;42.686;23.244;2023-03-15T13:35:54;92907.16;;;12.03;45.90
10732;BME280;5417;42.686;23.244;2023-03-15T13:38:24;92914.81;;;11.96;45.32
10732;BME280;5417;42.686;23.244;2023-03-15T13:40:53;92906.69;;;11.91;45.65